Time;durP1;ratioP1;P1;durP2;ratioP2;P2;SDS_P1;SDS_P2;PMS_P1;PMS_P2;Temp;Humidity;BMP_temperature;BMP_pressure;BME280_temperature;BME280_humidity;BME280_pressure;Samples;Min_cycle;Max_cycle;Signal;HPM_P1;HPM_P2
2020/12/25 00:01:33;;;;;;;;;;;;;;;;;;6308524;22;20324;-88
2020/12/25 00:03:59;;;;;;;;;;;;;;;;;;6311471;22;19907;-89
2020/12/25 00:06:26;;;;;;;;;;;;;;;;;;6312117;22;19922;-90
2020/12/25 00:08:52;;;;;;;;;;;;;;;;;;6327746;22;19905;-86
2020/12/25 00:11:18;;;;;;;;;;;;;;;;;;6332262;22;20295;-85
2020/12/25 00:13:44;;;;;;;;;;;;;;;;;;6328091;22;19890;-85
2020/12/25 00:16:10;;;;;;;;;;;;;;;;;;6335781;22;19891;-88
2020/12/25 00:18:36;;;;;;;;;;;;;;;;;;6335506;22;20026;-92
2020/12/25 00:21:02;;;;;;;;;;;;;;;;;;6335906;22;19890;-87
2020/12/25 00:23:28;;;;;;;;;;;;;;;;;;6335379;22;19899;-85
2020/12/25 00:25:53;;;;;;;;;;;;;;;;;;6335222;22;19903;-85
2020/12/25 00:28:19;;;;;;;;;;;;;;;;;;6334958;22;19966;-85
2020/12/25 00:30:45;;;;;;;;;;;;;;;;;;6334970;22;19886;-85
2020/12/25 00:33:11;;;;;;;;;;;;;;;;;;6334914;22;19887;-86
2020/12/25 00:35:37;;;;;;;;;;;;;;;;;;6310830;22;19926;-87
2020/12/25 00:38:03;;;;;;;;;;;;;;;;;;6307307;22;19899;-87
2020/12/25 00:40:29;;;;;;;;;;;;;;;;;;6306569;22;19938;-87
2020/12/25 00:42:55;;;;;;;;;;;;;;;;;;6306572;22;19911;-87
2020/12/25 00:45:21;;;;;;;;;;;;;;;;;;6305823;22;19922;-87
2020/12/25 00:47:47;;;;;;;;;;;;;;;;;;6305827;22;19996;-87
2020/12/25 00:50:12;;;;;;;;;;;;;;;;;;6306841;22;19940;-87
2020/12/25 00:52:38;;;;;;;;;;;;;;;;;;6306896;22;19899;-87
2020/12/25 00:55:04;;;;;;;;;;;;;;;;;;6306180;22;19902;-87
2020/12/25 00:57:30;;;;;;;;;;;;;;;;;;6306454;22;20225;-87
2020/12/25 00:59:56;;;;;;;;;;;;;;;;;;6306726;22;19917;-87
2020/12/25 01:02:23;;;;;;;;;;;;;;;;;;6306637;22;19907;-87
2020/12/25 01:04:49;;;;;;;;;;;;;;;;;;6306156;22;19933;-87
2020/12/25 01:07:15;;;;;;;;;;;;;;;;;;6306479;22;19944;-88
2020/12/25 01:09:41;;;;;;;;;;;;;;;;;;6306341;22;19899;-87
2020/12/25 01:12:07;;;;;;;;;;;;;;;;;;6306307;22;19942;-86
2020/12/25 01:14:33;;;;;;;;;;;;;;;;;;6306103;22;20205;-87
2020/12/25 01:16:59;;;;;;;;;;;;;;;;;;6305947;22;19974;-87
2020/12/25 01:19:24;;;;;;;;;;;;;;;;;;6304411;22;19898;-87
2020/12/25 01:21:50;;;;;;;;;;;;;;;;;;6305811;22;19899;-87
2020/12/25 01:24:16;;;;;;;;;;;;;;;;;;6306229;22;20342;-88
2020/12/25 01:26:42;;;;;;;;;;;;;;;;;;6304184;22;19948;-87
2020/12/25 01:29:08;;;;;;;;;;;;;;;;;;6306205;22;20235;-87
2020/12/25 01:31:34;;;;;;;;;;;;;;;;;;6305990;22;19899;-88
2020/12/25 01:34:00;;;;;;;;;;;;;;;;;;6306272;22;19922;-88
2020/12/25 01:36:26;;;;;;;;;;;;;;;;;;6319044;22;19882;-87
2020/12/25 01:38:52;;;;;;;;;;;;;;;;;;6309419;22;19953;-87
2020/12/25 01:41:18;;;;;;;;;;;;;;;;;;6306952;22;19917;-88
2020/12/25 01:43:44;;;;;;;;;;;;;;;;;;6304526;22;19907;-88
2020/12/25 01:46:09;;;;;;;;;;;;;;;;;;6304863;22;19905;-88
2020/12/25 01:48:35;;;;;;;;;;;;;;;;;;6304404;22;19905;-88
2020/12/25 01:51:01;;;;;;;;;;;;;;;;;;6304856;22;19898;-88
2020/12/25 01:53:27;;;;;;;;;;;;;;;;;;6306884;22;19906;-88
2020/12/25 01:55:53;;;;;;;;;;;;;;;;;;6306506;22;20335;-89
2020/12/25 01:58:19;;;;;;;;;;;;;;;;;;6306167;22;19899;-86
2020/12/25 02:00:46;;;;;;;;;;;;;;;;;;6306108;22;19909;-88
2020/12/25 02:03:12;;;;;;;;;;;;;;;;;;6306313;22;19906;-88
2020/12/25 02:05:38;;;;;;;;;;;;;;;;;;6305859;22;20332;-88
2020/12/25 02:08:04;;;;;;;;;;;;;;;;;;6306072;22;19990;-88
2020/12/25 02:10:30;;;;;;;;;;;;;;;;;;6306266;22;19932;-88
2020/12/25 02:12:56;;;;;;;;;;;;;;;;;;6304672;22;19905;-87
2020/12/25 02:15:22;;;;;;;;;;;;;;;;;;6306087;22;19902;-88
2020/12/25 02:17:48;;;;;;;;;;;;;;;;;;6305773;22;20320;-88
2020/12/25 02:20:14;;;;;;;;;;;;;;;;;;6306138;22;19898;-88
2020/12/25 02:22:39;;;;;;;;;;;;;;;;;;6305845;22;19934;-88
2020/12/25 02:25:05;;;;;;;;;;;;;;;;;;6306230;22;19903;-88
2020/12/25 02:27:31;;;;;;;;;;;;;;;;;;6305867;22;19903;-88
2020/12/25 02:29:57;;;;;;;;;;;;;;;;;;6306156;22;19926;-87
2020/12/25 02:32:23;;;;;;;;;;;;;;;;;;6305837;22;19973;-89
2020/12/25 02:34:49;;;;;;;;;;;;;;;;;;6307617;22;20239;-88
2020/12/25 02:37:15;;;;;;;;;;;;;;;;;;6308357;22;19899;-88
2020/12/25 02:39:41;;;;;;;;;;;;;;;;;;6307734;22;19911;-88
2020/12/25 02:42:07;;;;;;;;;;;;;;;;;;6308213;22;20327;-87
2020/12/25 02:44:32;;;;;;;;;;;;;;;;;;6307841;22;19914;-88
2020/12/25 02:46:58;;;;;;;;;;;;;;;;;;6307969;22;20319;-88
2020/12/25 02:49:24;;;;;;;;;;;;;;;;;;6308188;22;19899;-89
2020/12/25 02:51:50;;;;;;;;;;;;;;;;;;6307967;22;20251;-88
2020/12/25 02:54:16;;;;;;;;;;;;;;;;;;6308334;22;19978;-89
2020/12/25 02:56:42;;;;;;;;;;;;;;;;;;6307951;22;19909;-89
2020/12/25 02:59:08;;;;;;;;;;;;;;;;;;6313941;22;20365;-92
2020/12/25 03:01:34;;;;;;;;;;;;;;;;;;6315484;22;19899;-91
2020/12/25 03:04:00;;;;;;;;;;;;;;;;;;6316657;22;19906;-93
2020/12/25 03:06:25;;;;;;;;;;;;;;;;;;6320606;22;19899;-92
2020/12/25 03:08:51;;;;;;;;;;;;;;;;;;6322963;22;19903;-93
2020/12/25 03:11:17;;;;;;;;;;;;;;;;;;6325006;22;19909;-92
2020/12/25 03:13:44;;;;;;;;;;;;;;;;;;6329087;22;20239;-92
2020/12/25 03:16:10;;;;;;;;;;;;;;;;;;6309667;22;19899;-91
2020/12/25 03:18:36;;;;;;;;;;;;;;;;;;6308402;22;20410;-90
2020/12/25 03:21:02;;;;;;;;;;;;;;;;;;6308519;22;19899;-91
2020/12/25 03:23:28;;;;;;;;;;;;;;;;;;6308572;22;19917;-91
2020/12/25 03:25:54;;;;;;;;;;;;;;;;;;6308567;22;19902;-91
2020/12/25 03:28:19;;;;;;;;;;;;;;;;;;6309053;22;19899;-91
2020/12/25 03:30:45;;;;;;;;;;;;;;;;;;6309043;22;19903;-90
2020/12/25 03:33:11;;;;;;;;;;;;;;;;;;6308947;22;19903;-91
2020/12/25 03:35:37;;;;;;;;;;;;;;;;;;6306852;22;19924;-90
2020/12/25 03:38:03;;;;;;;;;;;;;;;;;;6309191;22;19982;-90
2020/12/25 03:40:29;;;;;;;;;;;;;;;;;;6308360;22;19918;-91
2020/12/25 03:42:55;;;;;;;;;;;;;;;;;;6309310;22;19956;-91
2020/12/25 03:45:21;;;;;;;;;;;;;;;;;;6307027;22;19913;-90
2020/12/25 03:47:47;;;;;;;;;;;;;;;;;;6308300;22;19903;-90
2020/12/25 03:50:13;;;;;;;;;;;;;;;;;;6306755;22;19980;-89
2020/12/25 03:52:39;;;;;;;;;;;;;;;;;;6308052;22;19903;-90
2020/12/25 03:55:05;;;;;;;;;;;;;;;;;;6308438;22;19899;-90
2020/12/25 03:57:30;;;;;;;;;;;;;;;;;;6310328;22;19899;-91
2020/12/25 03:59:56;;;;;;;;;;;;;;;;;;6315544;22;19899;-91
2020/12/25 04:02:22;;;;;;;;;;;;;;;;;;6315265;22;19953;-91
2020/12/25 04:04:48;;;;;;;;;;;;;;;;;;6315820;22;19914;-91
2020/12/25 04:07:14;;;;;;;;;;;;;;;;;;6317098;22;20446;-91
2020/12/25 04:09:40;;;;;;;;;;;;;;;;;;6319294;22;19906;-92
2020/12/25 04:12:06;;;;;;;;;;;;;;;;;;6319481;22;19899;-92
2020/12/25 04:14:32;;;;;;;;;;;;;;;;;;6318616;22;19899;-90
2020/12/25 04:16:58;;;;;;;;;;;;;;;;;;6318122;22;19899;-91
2020/12/25 04:19:24;;;;;;;;;;;;;;;;;;6333611;22;19887;-90
2020/12/25 04:21:50;;;;;;;;;;;;;;;;;;6335646;22;19891;-87
2020/12/25 04:24:15;;;;;;;;;;;;;;;;;;6335641;22;19894;-88
2020/12/25 04:26:41;;;;;;;;;;;;;;;;;;6335723;22;19887;-85
2020/12/25 04:29:07;;;;;;;;;;;;;;;;;;6336087;22;19952;-90
2020/12/25 04:31:33;;;;;;;;;;;;;;;;;;6335646;22;19908;-91
2020/12/25 04:33:59;;;;;;;;;;;;;;;;;;6335481;22;19887;-91
2020/12/25 04:36:25;;;;;;;;;;;;;;;;;;6315847;22;19898;-91
2020/12/25 04:38:51;;;;;;;;;;;;;;;;;;6308576;22;20355;-89
2020/12/25 04:41:17;;;;;;;;;;;;;;;;;;6308699;22;19914;-90
2020/12/25 04:43:42;;;;;;;;;;;;;;;;;;6306449;22;20213;-90
2020/12/25 04:46:08;;;;;;;;;;;;;;;;;;6308503;22;19905;-90
2020/12/25 04:48:34;;;;;;;;;;;;;;;;;;6308695;22;19905;-90
2020/12/25 04:51:01;;;;;;;;;;;;;;;;;;6308387;22;19899;-90
2020/12/25 04:53:27;;;;;;;;;;;;;;;;;;6308165;22;19944;-92
2020/12/25 04:55:53;;;;;;;;;;;;;;;;;;6307711;22;19899;-91
2020/12/25 04:58:19;;;;;;;;;;;;;;;;;;6308438;22;19906;-90
2020/12/25 05:00:44;;;;;;;;;;;;;;;;;;6308288;22;19898;-90
2020/12/25 05:03:10;;;;;;;;;;;;;;;;;;6308825;22;19929;-91
2020/12/25 05:05:37;;;;;;;;;;;;;;;;;;6314501;22;19905;-89
2020/12/25 05:08:03;;;;;;;;;;;;;;;;;;6317246;22;19899;-89
2020/12/25 05:10:28;;;;;;;;;;;;;;;;;;6313070;22;19899;-90
2020/12/25 05:12:54;;;;;;;;;;;;;;;;;;6308366;22;19951;-92
2020/12/25 05:15:20;;;;;;;;;;;;;;;;;;6307276;22;19903;-90
2020/12/25 05:17:46;;;;;;;;;;;;;;;;;;6307443;22;19899;-89
2020/12/25 05:20:12;;;;;;;;;;;;;;;;;;6307961;22;19899;-90
2020/12/25 05:22:38;;;;;;;;;;;;;;;;;;6307482;22;20426;-91
2020/12/25 05:25:04;;;;;;;;;;;;;;;;;;6307520;22;19909;-91
2020/12/25 05:27:30;;;;;;;;;;;;;;;;;;6307329;22;19899;-90
2020/12/25 05:29:56;;;;;;;;;;;;;;;;;;6307425;22;19909;-91
2020/12/25 05:32:22;;;;;;;;;;;;;;;;;;6307094;22;19903;-89
2020/12/25 05:34:47;;;;;;;;;;;;;;;;;;6306756;22;19906;-89
2020/12/25 05:37:13;;;;;;;;;;;;;;;;;;6306991;22;19899;-89
2020/12/25 05:39:39;;;;;;;;;;;;;;;;;;6306666;22;19914;-89
2020/12/25 05:42:05;;;;;;;;;;;;;;;;;;6306905;22;19903;-89
2020/12/25 05:44:31;;;;;;;;;;;;;;;;;;6306754;22;19914;-89
2020/12/25 05:46:57;;;;;;;;;;;;;;;;;;6307078;22;19903;-90
2020/12/25 05:49:23;;;;;;;;;;;;;;;;;;6305477;22;19899;-89
2020/12/25 05:51:49;;;;;;;;;;;;;;;;;;6306951;22;19906;-91
2020/12/25 05:54:15;;;;;;;;;;;;;;;;;;6306978;22;19940;-90
2020/12/25 05:56:41;;;;;;;;;;;;;;;;;;6307124;22;19903;-89
2020/12/25 05:59:07;;;;;;;;;;;;;;;;;;6306830;22;20046;-90
2020/12/25 06:01:32;;;;;;;;;;;;;;;;;;6306521;22;19934;-89
2020/12/25 06:03:58;;;;;;;;;;;;;;;;;;6306897;22;19929;-91
2020/12/25 06:06:24;;;;;;;;;;;;;;;;;;6306893;22;19951;-90
2020/12/25 06:08:50;;;;;;;;;;;;;;;;;;6308087;22;19902;-90
2020/12/25 06:11:17;;;;;;;;;;;;;;;;;;6308512;22;20407;-90
2020/12/25 06:13:42;;;;;;;;;;;;;;;;;;6323138;22;20228;-90
2020/12/25 06:16:08;;;;;;;;;;;;;;;;;;6308840;22;19906;-91
2020/12/25 06:18:34;;;;;;;;;;;;;;;;;;6308629;22;19903;-90
2020/12/25 06:21:00;;;;;;;;;;;;;;;;;;6308911;22;20315;-90
2020/12/25 06:23:26;;;;;;;;;;;;;;;;;;6309290;22;19907;-90
2020/12/25 06:25:52;;;;;;;;;;;;;;;;;;6309784;22;19978;-91
2020/12/25 06:28:19;;;;;;;;;;;;;;;;;;6313208;22;19899;-90
2020/12/25 06:30:45;;;;;;;;;;;;;;;;;;6311925;22;19978;-91
2020/12/25 06:33:11;;;;;;;;;;;;;;;;;;6311994;22;19899;-91
2020/12/25 06:35:37;;;;;;;;;;;;;;;;;;6310173;22;19918;-89
2020/12/25 06:38:03;;;;;;;;;;;;;;;;;;6311140;22;19952;-90
2020/12/25 06:40:29;;;;;;;;;;;;;;;;;;6311155;22;19918;-90
2020/12/25 06:42:55;;;;;;;;;;;;;;;;;;6311360;22;20047;-89
2020/12/25 06:45:21;;;;;;;;;;;;;;;;;;6310598;22;19903;-90
2020/12/25 06:47:47;;;;;;;;;;;;;;;;;;6310098;22;19899;-89
2020/12/25 06:50:13;;;;;;;;;;;;;;;;;;6309517;22;19906;-89
2020/12/25 06:52:38;;;;;;;;;;;;;;;;;;6309154;22;19903;-89
2020/12/25 06:55:04;;;;;;;;;;;;;;;;;;6310687;22;19899;-88
2020/12/25 06:57:30;;;;;;;;;;;;;;;;;;6310086;22;19899;-90
2020/12/25 06:59:56;;;;;;;;;;;;;;;;;;6310815;22;19899;-90
2020/12/25 07:02:22;;;;;;;;;;;;;;;;;;6309518;22;20244;-90
2020/12/25 07:04:48;;;;;;;;;;;;;;;;;;6310016;22;19902;-90
2020/12/25 07:07:14;;;;;;;;;;;;;;;;;;6308635;22;19930;-90
2020/12/25 07:09:40;;;;;;;;;;;;;;;;;;6309758;22;19910;-90
2020/12/25 07:12:06;;;;;;;;;;;;;;;;;;6308348;22;19902;-90
2020/12/25 07:14:32;;;;;;;;;;;;;;;;;;6309903;22;20060;-90
2020/12/25 07:16:58;;;;;;;;;;;;;;;;;;6310183;22;19906;-90
2020/12/25 07:19:24;;;;;;;;;;;;;;;;;;6309032;22;19906;-89
2020/12/25 07:21:50;;;;;;;;;;;;;;;;;;6309870;22;19932;-90
2020/12/25 07:24:16;;;;;;;;;;;;;;;;;;6309933;22;19910;-89
2020/12/25 07:26:42;;;;;;;;;;;;;;;;;;6309235;22;19903;-89
2020/12/25 07:29:07;;;;;;;;;;;;;;;;;;6309712;22;19910;-90
2020/12/25 07:31:33;;;;;;;;;;;;;;;;;;6309277;22;19899;-91
2020/12/25 07:33:59;;;;;;;;;;;;;;;;;;6309680;22;19899;-84
2020/12/25 07:36:25;;;;;;;;;;;;;;;;;;6306233;22;20365;-85
2020/12/25 07:38:51;;;;;;;;;;;;;;;;;;6306483;22;19903;-85
2020/12/25 07:41:17;;;;;;;;;;;;;;;;;;6306468;22;19959;-84
2020/12/25 07:43:43;;;;;;;;;;;;;;;;;;6306645;22;19913;-84
2020/12/25 07:46:09;;;;;;;;;;;;;;;;;;6306758;22;19899;-84
2020/12/25 07:48:35;;;;;;;;;;;;;;;;;;6304943;22;19909;-84
2020/12/25 07:51:01;;;;;;;;;;;;;;;;;;6306801;22;19905;-83
2020/12/25 07:53:30;;;;;;;;;;;;;;;;;;6311943;22;19902;-88
2020/12/25 07:55:56;;;;;;;;;;;;;;;;;;6318205;22;19886;-92
2020/12/25 07:58:22;;;;;;;;;;;;;;;;;;6336486;22;19913;-84
2020/12/25 08:00:48;;;;;;;;;;;;;;;;;;6337171;22;19887;-88
2020/12/25 08:03:14;;;;;;;;;;;;;;;;;;6337262;22;19895;-88
2020/12/25 08:05:40;;;;;;;;;;;;;;;;;;6336958;22;19891;-89
2020/12/25 08:08:06;;;;;;;;;;;;;;;;;;6336312;22;19891;-92
2020/12/25 08:10:32;;;;;;;;;;;;;;;;;;6334531;22;19891;-86
2020/12/25 08:12:57;;;;;;;;;;;;;;;;;;6334200;22;19907;-82
2020/12/25 08:15:23;;;;;;;;;;;;;;;;;;6318105;22;19910;-84
2020/12/25 08:17:49;;;;;;;;;;;;;;;;;;6309602;22;20209;-85
2020/12/25 08:20:15;;;;;;;;;;;;;;;;;;6318289;22;19894;-84
2020/12/25 08:22:41;;;;;;;;;;;;;;;;;;6332111;22;19946;-84
2020/12/25 08:25:07;;;;;;;;;;;;;;;;;;6331154;22;19909;-87
2020/12/25 08:27:33;;;;;;;;;;;;;;;;;;6330949;22;19903;-83
2020/12/25 08:29:59;;;;;;;;;;;;;;;;;;6332504;22;19890;-83
2020/12/25 08:32:25;;;;;;;;;;;;;;;;;;6332897;22;19919;-83
2020/12/25 08:34:51;;;;;;;;;;;;;;;;;;6333259;22;19913;-83
2020/12/25 08:37:17;;;;;;;;;;;;;;;;;;6332955;22;19907;-83
2020/12/25 08:39:43;;;;;;;;;;;;;;;;;;6333410;22;19906;-82
2020/12/25 08:42:09;;;;;;;;;;;;;;;;;;6328702;22;19920;-86
2020/12/25 08:44:35;;;;;;;;;;;;;;;;;;6307786;22;19929;-87
2020/12/25 08:47:01;;;;;;;;;;;;;;;;;;6315433;22;19910;-89
2020/12/25 08:49:27;;;;;;;;;;;;;;;;;;6312711;22;20266;-87
2020/12/25 08:51:53;;;;;;;;;;;;;;;;;;6307498;22;19903;-88
2020/12/25 08:54:18;;;;;;;;;;;;;;;;;;6309878;22;19994;-91
2020/12/25 08:56:44;;;;;;;;;;;;;;;;;;6313167;22;19973;-93
2020/12/25 08:59:11;;;;;;;;;;;;;;;;;;6313125;22;19977;-89
2020/12/25 09:01:41;;;;;;;;;;;;;;;;;;6312318;22;20369;-91
2020/12/25 09:04:07;;;;;;;;;;;;;;;;;;6310963;22;19942;-93
2020/12/25 09:06:33;;;;;;;;;;;;;;;;;;6313447;22;20309;-95
2020/12/25 09:08:58;;;;;;;;;;;;;;;;;;6311576;22;19899;-94
2020/12/25 09:11:24;;;;;;;;;;;;;;;;;;6310431;22;19990;-94
2020/12/25 09:13:51;;;;;;;;;;;;;;;;;;6310536;22;19899;-94
2020/12/25 09:16:17;;;;;;;;;;;;;;;;;;6310679;22;19903;-88
2020/12/25 09:18:43;;;;;;;;;;;;;;;;;;6310292;22;19947;-93
2020/12/25 09:21:09;;;;;;;;;;;;;;;;;;6310758;22;19899;-94
2020/12/25 09:23:35;;;;;;;;;;;;;;;;;;6311067;22;19957;-92
2020/12/25 09:26:01;;;;;;;;;;;;;;;;;;6311132;22;19947;-93
2020/12/25 09:28:26;;;;;;;;;;;;;;;;;;6310888;22;20277;-93
2020/12/25 09:30:52;;;;;;;;;;;;;;;;;;6308998;22;20366;-94
2020/12/25 09:33:18;;;;;;;;;;;;;;;;;;6310713;22;19903;-93
2020/12/25 09:35:44;;;;;;;;;;;;;;;;;;6309439;22;20308;-92
2020/12/25 09:38:10;;;;;;;;;;;;;;;;;;6310697;22;19938;-93
2020/12/25 09:40:36;;;;;;;;;;;;;;;;;;6310761;22;20339;-92
2020/12/25 09:43:02;;;;;;;;;;;;;;;;;;6308840;22;19975;-83
2020/12/25 09:45:28;;;;;;;;;;;;;;;;;;6309420;22;20537;-85
2020/12/25 09:47:53;;;;;;;;;;;;;;;;;;6307929;22;19903;-87
2020/12/25 09:50:19;;;;;;;;;;;;;;;;;;6308860;22;19925;-90
2020/12/25 09:52:45;;;;;;;;;;;;;;;;;;6312598;22;19898;-92
2020/12/25 09:55:11;;;;;;;;;;;;;;;;;;6318874;22;19899;-90
2020/12/25 09:57:37;;;;;;;;;;;;;;;;;;6318991;22;19903;-90
2020/12/25 10:00:03;;;;;;;;;;;;;;;;;;6314955;22;20316;-89
2020/12/25 10:02:29;;;;;;;;;;;;;;;;;;6313831;22;19979;-91
2020/12/25 10:04:55;;;;;;;;;;;;;;;;;;6310540;22;19947;-86
2020/12/25 10:07:21;;;;;;;;;;;;;;;;;;6308868;22;20383;-88
2020/12/25 10:09:47;;;;;;;;;;;;;;;;;;6310092;22;19985;-89
2020/12/25 10:12:12;;;;;;;;;;;;;;;;;;6309295;22;19952;-88
2020/12/25 10:14:38;;;;;;;;;;;;;;;;;;6311334;22;19978;-89
2020/12/25 10:17:04;;;;;;;;;;;;;;;;;;6316565;22;19909;-93
2020/12/25 10:19:30;;;;;;;;;;;;;;;;;;6311961;22;20385;-88
2020/12/25 10:21:56;;;;;;;;;;;;;;;;;;6305176;22;20236;-80
2020/12/25 10:24:22;;;;;;;;;;;;;;;;;;6305593;22;19911;-83
2020/12/25 10:26:48;;;;;;;;;;;;;;;;;;6306888;22;20291;-78
2020/12/25 10:29:14;;;;;;;;;;;;;;;;;;6304624;22;20235;-78
2020/12/25 10:31:40;;;;;;;;;;;;;;;;;;6305966;22;19899;-79
2020/12/25 10:34:06;;;;;;;;;;;;;;;;;;6306459;22;19903;-81
2020/12/25 10:36:32;;;;;;;;;;;;;;;;;;6306783;22;19905;-80
2020/12/25 10:38:57;;;;;;;;;;;;;;;;;;6306733;22;19925;-80
2020/12/25 10:41:23;;;;;;;;;;;;;;;;;;6306214;22;19911;-80
2020/12/25 10:43:49;;;;;;;;;;;;;;;;;;6306644;22;20304;-79
2020/12/25 10:46:15;;;;;;;;;;;;;;;;;;6306990;22;19899;-83
2020/12/25 10:48:41;;;;;;;;;;;;;;;;;;6306056;22;20275;-84
2020/12/25 10:51:07;;;;;;;;;;;;;;;;;;6308420;22;19909;-84
2020/12/25 10:53:33;;;;;;;;;;;;;;;;;;6306225;22;20278;-83
2020/12/25 10:55:59;;;;;;;;;;;;;;;;;;6306471;22;19902;-82
2020/12/25 10:58:24;;;;;;;;;;;;;;;;;;6306542;22;19902;-81
2020/12/25 11:00:50;;;;;;;;;;;;;;;;;;6307623;22;19898;-85
2020/12/25 11:03:16;;;;;;;;;;;;;;;;;;6308616;22;20301;-87
2020/12/25 11:05:42;;;;;;;;;;;;;;;;;;6306655;22;20349;-83
2020/12/25 11:08:08;;;;;;;;;;;;;;;;;;6307898;22;19988;-85
2020/12/25 11:10:34;;;;;;;;;;;;;;;;;;6307529;22;19966;-81
2020/12/25 11:13:00;;;;;;;;;;;;;;;;;;6308647;22;19921;-82
2020/12/25 11:15:26;;;;;;;;;;;;;;;;;;6308223;22;19906;-79
2020/12/25 11:17:52;;;;;;;;;;;;;;;;;;6307234;22;19964;-84
2020/12/25 11:20:18;;;;;;;;;;;;;;;;;;6307193;22;19902;-82
2020/12/25 11:22:43;;;;;;;;;;;;;;;;;;6307990;22;19914;-81
2020/12/25 11:25:09;;;;;;;;;;;;;;;;;;6308655;22;19906;-82
2020/12/25 11:27:35;;;;;;;;;;;;;;;;;;6306860;22;19902;-82
2020/12/25 11:30:01;;;;;;;;;;;;;;;;;;6307445;22;19903;-81
2020/12/25 11:32:27;;;;;;;;;;;;;;;;;;6307239;22;19930;-83
2020/12/25 11:34:53;;;;;;;;;;;;;;;;;;6307001;22;20353;-82
2020/12/25 11:37:19;;;;;;;;;;;;;;;;;;6307122;22;19982;-83
2020/12/25 11:39:45;;;;;;;;;;;;;;;;;;6306925;22;19911;-82
2020/12/25 11:42:11;;;;;;;;;;;;;;;;;;6307416;22;19922;-83
2020/12/25 11:44:36;;;;;;;;;;;;;;;;;;6306878;22;19911;-84
2020/12/25 11:47:02;;;;;;;;;;;;;;;;;;6307069;22;19902;-84
2020/12/25 11:49:28;;;;;;;;;;;;;;;;;;6307546;22;19903;-80
2020/12/25 11:51:56;;;;;;;;;;;;;;;;;;6306517;22;19903;-78
2020/12/25 11:54:22;;;;;;;;;;;;;;;;;;6306655;22;19903;-80
2020/12/25 11:56:48;;;;;;;;;;;;;;;;;;6305573;22;19955;-79
2020/12/25 11:59:13;;;;;;;;;;;;;;;;;;6305613;22;20312;-81
2020/12/25 12:01:39;;;;;;;;;;;;;;;;;;6305838;22;19902;-82
2020/12/25 12:04:05;;;;;;;;;;;;;;;;;;6305721;22;20290;-87
2020/12/25 12:06:31;;;;;;;;;;;;;;;;;;6307046;22;19935;-80
2020/12/25 12:08:57;;;;;;;;;;;;;;;;;;6306436;22;19899;-75
2020/12/25 12:11:23;;;;;;;;;;;;;;;;;;6305862;22;19902;-84
2020/12/25 12:13:49;;;;;;;;;;;;;;;;;;6304315;22;19905;-84
2020/12/25 12:16:15;;;;;;;;;;;;;;;;;;6304603;22;19898;-86
2020/12/25 12:18:41;;;;;;;;;;;;;;;;;;6306086;22;19899;-86
2020/12/25 12:21:08;;;;;;;;;;;;;;;;;;6303805;22;19903;-84
2020/12/25 12:23:34;;;;;;;;;;;;;;;;;;6305120;22;19960;-85
2020/12/25 12:25:59;;;;;;;;;;;;;;;;;;6305352;22;19985;-86
2020/12/25 12:28:25;;;;;;;;;;;;;;;;;;6308608;22;19944;-87
2020/12/25 12:30:51;;;;;;;;;;;;;;;;;;6308528;22;19921;-88
2020/12/25 12:33:17;;;;;;;;;;;;;;;;;;6308395;22;19899;-86
2020/12/25 12:35:43;;;;;;;;;;;;;;;;;;6308401;22;19903;-87
2020/12/25 12:38:09;;;;;;;;;;;;;;;;;;6308233;22;19906;-87
2020/12/25 12:40:35;;;;;;;;;;;;;;;;;;6305910;22;19911;-87
2020/12/25 12:43:01;;;;;;;;;;;;;;;;;;6309434;22;19959;-88
2020/12/25 12:45:27;;;;;;;;;;;;;;;;;;6320920;22;19947;-88
2020/12/25 12:47:53;;;;;;;;;;;;;;;;;;6324693;22;19918;-88
2020/12/25 12:50:18;;;;;;;;;;;;;;;;;;6324997;22;20003;-87
2020/12/25 12:52:44;;;;;;;;;;;;;;;;;;6319694;22;19906;-88
2020/12/25 12:55:10;;;;;;;;;;;;;;;;;;6322434;22;19899;-88
2020/12/25 12:57:36;;;;;;;;;;;;;;;;;;6319982;22;19903;-87
2020/12/25 13:00:02;;;;;;;;;;;;;;;;;;6319134;22;19921;-86
2020/12/25 13:02:28;;;;;;;;;;;;;;;;;;6320361;22;19903;-87
2020/12/25 13:04:54;;;;;;;;;;;;;;;;;;6319403;22;20058;-88
2020/12/25 13:07:20;;;;;;;;;;;;;;;;;;6309081;22;19910;-86
2020/12/25 13:09:46;;;;;;;;;;;;;;;;;;6309490;22;20054;-86
2020/12/25 13:12:12;;;;;;;;;;;;;;;;;;6308347;22;19898;-87
2020/12/25 13:14:38;;;;;;;;;;;;;;;;;;6309357;22;19902;-87
2020/12/25 13:17:04;;;;;;;;;;;;;;;;;;6309447;22;20332;-87
2020/12/25 13:19:30;;;;;;;;;;;;;;;;;;6309936;22;19903;-88
2020/12/25 13:21:56;;;;;;;;;;;;;;;;;;6308209;22;19906;-86
2020/12/25 13:24:23;;;;;;;;;;;;;;;;;;6305298;22;19911;-83
2020/12/25 13:26:49;;;;;;;;;;;;;;;;;;6305512;22;19974;-84
2020/12/25 13:29:15;;;;;;;;;;;;;;;;;;6305640;22;19906;-87
2020/12/25 13:31:41;;;;;;;;;;;;;;;;;;6304464;22;20212;-78
2020/12/25 13:34:06;;;;;;;;;;;;;;;;;;6306626;22;19917;-86
2020/12/25 13:36:33;;;;;;;;;;;;;;;;;;6306630;22;20354;-85
2020/12/25 13:38:59;;;;;;;;;;;;;;;;;;6305416;22;19899;-84
2020/12/25 13:41:25;;;;;;;;;;;;;;;;;;6308602;22;19906;-85
2020/12/25 13:43:51;;;;;;;;;;;;;;;;;;6307240;22;20284;-85
2020/12/25 13:46:17;;;;;;;;;;;;;;;;;;6307003;22;19906;-84
2020/12/25 13:48:42;;;;;;;;;;;;;;;;;;6306410;22;19903;-83
2020/12/25 13:51:08;;;;;;;;;;;;;;;;;;6302926;22;20566;-76
2020/12/25 13:53:34;;;;;;;;;;;;;;;;;;6307338;22;19903;-88
2020/12/25 13:56:00;;;;;;;;;;;;;;;;;;6311966;22;20231;-85
2020/12/25 13:58:26;;;;;;;;;;;;;;;;;;6312071;22;19914;-83
2020/12/25 14:00:52;;;;;;;;;;;;;;;;;;6306009;22;19921;-83
2020/12/25 14:03:18;;;;;;;;;;;;;;;;;;6304515;22;19917;-82
2020/12/25 14:05:44;;;;;;;;;;;;;;;;;;6303841;22;20331;-83
2020/12/25 14:08:10;;;;;;;;;;;;;;;;;;6305115;22;19906;-82
2020/12/25 14:10:36;;;;;;;;;;;;;;;;;;6304897;22;20314;-82
2020/12/25 14:13:01;;;;;;;;;;;;;;;;;;6304623;22;19906;-83
2020/12/25 14:15:27;;;;;;;;;;;;;;;;;;6306101;22;20446;-86
2020/12/25 14:17:54;;;;;;;;;;;;;;;;;;6305676;22;20020;-85
2020/12/25 14:20:19;;;;;;;;;;;;;;;;;;6306706;22;20320;-87
2020/12/25 14:22:45;;;;;;;;;;;;;;;;;;6307801;22;19914;-85
2020/12/25 14:25:11;;;;;;;;;;;;;;;;;;6304775;22;19970;-85
2020/12/25 14:27:37;;;;;;;;;;;;;;;;;;6305017;22;20308;-85
2020/12/25 14:30:03;;;;;;;;;;;;;;;;;;6307117;22;19944;-85
2020/12/25 14:32:29;;;;;;;;;;;;;;;;;;6307473;22;19982;-85
2020/12/25 14:34:55;;;;;;;;;;;;;;;;;;6308123;22;20318;-86
2020/12/25 14:37:21;;;;;;;;;;;;;;;;;;6306765;22;19928;-86
2020/12/25 14:39:47;;;;;;;;;;;;;;;;;;6307462;22;19914;-84
2020/12/25 14:42:13;;;;;;;;;;;;;;;;;;6307785;22;19906;-84
2020/12/25 14:44:39;;;;;;;;;;;;;;;;;;6305506;22;19912;-80
2020/12/25 14:47:05;;;;;;;;;;;;;;;;;;6307267;22;19903;-84
2020/12/25 14:49:31;;;;;;;;;;;;;;;;;;6307083;22;19902;-84
2020/12/25 14:51:56;;;;;;;;;;;;;;;;;;6307112;22;20266;-84
2020/12/25 14:54:22;;;;;;;;;;;;;;;;;;6306804;22;19960;-84
2020/12/25 14:56:48;;;;;;;;;;;;;;;;;;6306828;22;20115;-89
2020/12/25 14:59:14;;;;;;;;;;;;;;;;;;6306311;22;19934;-86
2020/12/25 15:01:40;;;;;;;;;;;;;;;;;;6305315;22;19982;-86
2020/12/25 15:04:06;;;;;;;;;;;;;;;;;;6305863;22;19956;-86
2020/12/25 15:06:32;;;;;;;;;;;;;;;;;;6306574;22;19899;-85
2020/12/25 15:08:58;;;;;;;;;;;;;;;;;;6306432;22;19903;-85
2020/12/25 15:11:23;;;;;;;;;;;;;;;;;;6304825;22;19899;-85
2020/12/25 15:13:49;;;;;;;;;;;;;;;;;;6306441;22;20315;-86
2020/12/25 15:16:16;;;;;;;;;;;;;;;;;;6306973;22;19898;-86
2020/12/25 15:18:42;;;;;;;;;;;;;;;;;;6306643;22;20370;-86
2020/12/25 15:21:07;;;;;;;;;;;;;;;;;;6307254;22;19910;-85
2020/12/25 15:23:33;;;;;;;;;;;;;;;;;;6307316;22;19964;-86
2020/12/25 15:25:59;;;;;;;;;;;;;;;;;;6306807;22;20033;-87
2020/12/25 15:28:25;;;;;;;;;;;;;;;;;;6306915;22;19899;-88
2020/12/25 15:30:51;;;;;;;;;;;;;;;;;;6308832;22;19926;-87
2020/12/25 15:33:17;;;;;;;;;;;;;;;;;;6307756;22;19926;-87
2020/12/25 15:35:43;;;;;;;;;;;;;;;;;;6310733;22;19981;-87
2020/12/25 15:38:09;;;;;;;;;;;;;;;;;;6308769;22;19926;-86
2020/12/25 15:40:34;;;;;;;;;;;;;;;;;;6307924;22;19986;-87
2020/12/25 15:43:00;;;;;;;;;;;;;;;;;;6308476;22;19911;-87
2020/12/25 15:45:26;;;;;;;;;;;;;;;;;;6308005;22;19909;-87
2020/12/25 15:47:52;;;;;;;;;;;;;;;;;;6307370;22;19952;-87
2020/12/25 15:50:18;;;;;;;;;;;;;;;;;;6308676;22;19902;-87
2020/12/25 15:52:44;;;;;;;;;;;;;;;;;;6307245;22;19899;-87
2020/12/25 15:55:10;;;;;;;;;;;;;;;;;;6307763;22;20331;-87
2020/12/25 15:57:36;;;;;;;;;;;;;;;;;;6307938;22;19960;-88
2020/12/25 16:00:02;;;;;;;;;;;;;;;;;;6307619;22;20255;-87
2020/12/25 16:02:28;;;;;;;;;;;;;;;;;;6307051;22;19973;-86
2020/12/25 16:04:54;;;;;;;;;;;;;;;;;;6306034;22;19957;-86
2020/12/25 16:07:20;;;;;;;;;;;;;;;;;;6304481;22;19951;-86
2020/12/25 16:09:46;;;;;;;;;;;;;;;;;;6306018;22;19902;-86
2020/12/25 16:12:12;;;;;;;;;;;;;;;;;;6306254;22;19899;-86
2020/12/25 16:14:37;;;;;;;;;;;;;;;;;;6306450;22;20110;-86
2020/12/25 16:17:03;;;;;;;;;;;;;;;;;;6309034;22;20227;-86
2020/12/25 16:19:29;;;;;;;;;;;;;;;;;;6317042;22;19903;-85
2020/12/25 16:21:55;;;;;;;;;;;;;;;;;;6311464;22;19902;-86
2020/12/25 16:24:21;;;;;;;;;;;;;;;;;;6310622;22;20350;-86
2020/12/25 16:26:47;;;;;;;;;;;;;;;;;;6311839;22;19910;-85
2020/12/25 16:29:13;;;;;;;;;;;;;;;;;;6311010;22;20323;-86
2020/12/25 16:31:39;;;;;;;;;;;;;;;;;;6310430;22;19903;-86
2020/12/25 16:34:05;;;;;;;;;;;;;;;;;;6307711;22;20312;-86
2020/12/25 16:36:31;;;;;;;;;;;;;;;;;;6305298;22;19907;-86